Brest, Belarus
Current Conditions -  °F | °C
As of 3:30 PM on Monday 20 Oct 2014 (Local Time) from UMBB Reporting Station
Broken Clouds Broken Clouds  
Wind Chill: 16°   Ceiling: 3100
Heat Index: 16°   Visibility: 6mi
Dew Point:   Wind: 16mph
Humidity: 55%   Direction: 270°W
Pressure: 29.74"   Gusts: 25mph
Location:  52.12°N, 23.68°E
Report Text: UMBB 201330Z 27007G11MPS 9999 BKN031CB 16/07 Q1007 R29/CLRD//NOSIG
Loading
Personal Weather Stations






























Interactive Weather Map
Tropical Storm Tracking
New forecast layout! Learn more

10-Day Weather Forecast

Advertisements
Track Severe Weather on mobile